Time;durP1;ratioP1;P1;durP2;ratioP2;P2;SDS_P1;SDS_P2;PMS_P1;PMS_P2;Temp;Humidity;BMP_temperature;BMP_pressure;BME280_temperature;BME280_humidity;BME280_pressure;Samples;Min_cycle;Max_cycle;Signal;HPM_P1;HPM_P2
2022/04/01 00:01:20;;;;;;;;;1.00;1.00;;;;;5.97;70.62;100273.50;4975098;28;45321;-72
2022/04/01 00:03:45;;;;;;;;;0.50;0.50;;;;;5.91;70.63;100274.06;4975656;28;45380;-72
2022/04/01 00:06:11;;;;;;;;;2.25;1.00;;;;;5.92;71.44;100274.94;4974869;28;46376;-72
2022/04/01 00:08:37;;;;;;;;;1.00;1.00;;;;;5.93;71.23;100279.28;4975212;28;45469;-72
2022/04/01 00:11:02;;;;;;;;;1.75;1.00;;;;;5.93;72.04;100258.72;4982833;27;45201;-73
2022/04/01 00:13:28;;;;;;;;;1.00;1.00;;;;;5.86;72.23;100242.97;4995725;28;45400;-72
2022/04/01 00:15:54;;;;;;;;;2.00;2.00;;;;;5.94;72.52;100245.06;4999695;28;45931;-73
2022/04/01 00:18:19;;;;;;;;;4.50;2.25;;;;;5.95;72.08;100249.41;4995063;28;45227;-74
2022/04/01 00:20:45;;;;;;;;;1.00;0.75;;;;;5.84;71.63;100252.28;4994856;28;45211;-74
2022/04/01 00:23:12;;;;;;;;;3.25;1.00;;;;;5.80;72.52;100249.47;4994649;28;45533;-72
2022/04/01 00:25:39;;;;;;;;;3.00;0.75;;;;;5.70;72.57;100228.41;4976803;28;45588;-73
2022/04/01 00:28:05;;;;;;;;;1.00;1.00;;;;;5.72;73.07;100244.78;4976421;28;45761;-74
2022/04/01 00:30:33;;;;;;;;;1.75;0.25;;;;;5.74;73.48;100271.44;4995108;28;45354;-72
2022/04/01 00:32:59;;;;;;;;;3.50;1.50;;;;;5.71;73.76;100279.00;4995086;28;45444;-75
2022/04/01 00:35:25;;;;;;;;;1.75;0.00;;;;;5.67;73.86;100253.06;4993508;28;45382;-76
2022/04/01 00:37:52;;;;;;;;;3.75;1.00;;;;;5.56;74.06;100235.34;4994287;28;45417;-73
2022/04/01 00:40:18;;;;;;;;;0.00;0.00;;;;;5.50;74.63;100258.13;4994265;28;45365;-75
2022/04/01 00:42:45;;;;;;;;;2.00;0.00;;;;;5.43;75.71;100245.75;4994877;28;45538;-76
2022/04/01 00:45:11;;;;;;;;;0.25;0.00;;;;;5.40;75.46;100253.25;4993936;28;45508;-75
2022/04/01 00:47:38;;;;;;;;;1.00;0.00;;;;;5.38;76.01;100249.72;4994354;28;45413;-76
2022/04/01 00:50:05;;;;;;;;;1.00;1.00;;;;;5.37;76.00;100241.16;4995363;28;45368;-72
2022/04/01 00:52:30;;;;;;;;;1.00;0.00;;;;;5.40;75.80;100249.00;5002781;27;45241;-72
2022/04/01 00:54:56;;;;;;;;;1.00;0.00;;;;;5.39;75.62;100238.66;4994197;28;45195;-73
2022/04/01 00:57:22;;;;;;;;;0.00;0.00;;;;;5.35;75.35;100227.34;4993983;27;45254;-72
2022/04/01 00:59:48;;;;;;;;;1.50;1.00;;;;;5.39;76.24;100231.88;4994360;27;45346;-73
2022/04/01 01:02:14;;;;;;;;;0.00;0.00;;;;;5.38;76.13;100230.09;5065746;27;45484;-72
2022/04/01 01:04:41;;;;;;;;;1.50;0.25;;;;;5.48;76.35;100233.16;5097564;27;45436;-72
2022/04/01 01:07:07;;;;;;;;;0.50;0.50;;;;;5.52;76.26;100214.53;5097276;27;45334;-72
2022/04/01 01:09:33;;;;;;;;;1.00;1.00;;;;;5.55;76.62;100222.44;5098012;27;45268;-73
2022/04/01 01:11:59;;;;;;;;;0.25;0.00;;;;;5.53;77.24;100198.34;5098268;27;45316;-72
2022/04/01 01:14:34;;;;;;;;;1.25;0.00;;;;;5.47;78.51;100201.47;5097156;27;46092;-73
2022/04/01 01:17:02;;;;;;;;;1.75;1.25;;;;;5.46;78.96;100197.13;5097556;27;45840;-72
2022/04/01 01:19:30;;;;;;;;;0.00;0.00;;;;;5.47;80.75;100201.47;5097278;27;45416;-72
2022/04/01 01:21:56;;;;;;;;;1.00;1.00;;;;;5.43;82.44;100199.53;5097602;27;45535;-73
2022/04/01 01:24:37;;;;;;;;;1.75;0.50;;;;;5.38;84.03;100193.25;5097011;27;45781;-72
2022/04/01 01:27:06;;;;;;;;;1.50;1.00;;;;;5.31;85.04;100186.00;5097611;27;45805;-73
2022/04/01 01:29:32;;;;;;;;;0.00;0.00;;;;;5.32;84.89;100187.78;5097742;27;45268;-72
2022/04/01 01:32:00;;;;;;;;;2.00;1.00;;;;;5.36;86.01;100176.88;5098250;27;45550;-71
2022/04/01 01:34:28;;;;;;;;;0.25;0.25;;;;;5.34;85.32;100189.63;5097199;27;45220;-72
2022/04/01 01:36:54;;;;;;;;;0.00;0.00;;;;;5.29;85.76;100179.91;5097345;27;45363;-73
2022/04/01 01:39:20;;;;;;;;;6.00;0.00;;;;;5.26;87.52;100194.31;5096906;27;45413;-72
2022/04/01 01:41:49;;;;;;;;;0.00;0.00;;;;;5.12;90.16;100174.72;5097461;27;45536;-73
2022/04/01 01:44:17;;;;;;;;;0.00;0.00;;;;;5.10;92.85;100189.16;5096681;27;45239;-72
2022/04/01 01:46:42;;;;;;;;;0.50;0.50;;;;;5.07;94.30;100158.19;5095766;27;45607;-72
2022/04/01 01:49:08;;;;;;;;;1.00;0.00;;;;;5.08;93.51;100150.56;5096822;27;45288;-72
2022/04/01 01:57:04;;;;;;;;;2.00;0.00;;;;;5.10;92.89;100153.22;4993653;28;45362;-73
2022/04/01 01:59:29;;;;;;;;;0.50;0.00;;;;;5.00;93.76;100140.69;5000609;27;45578;-73
2022/04/01 02:01:55;;;;;;;;;1.75;1.00;;;;;4.97;94.03;100123.41;4975969;28;45556;-75
2022/04/01 02:04:22;;;;;;;;;0.50;0.50;;;;;4.96;98.73;100147.31;4993056;28;46021;-75
2022/04/01 02:06:49;;;;;;;;;0.00;0.00;;;;;4.85;100.00;100122.75;4993282;28;45431;-75
2022/04/01 02:09:16;;;;;;;;;0.00;0.00;;;;;4.70;100.00;100105.69;4993685;28;45235;-75
2022/04/01 02:11:42;;;;;;;;;2.00;1.00;;;;;4.81;100.00;100134.50;4996960;27;45208;-74
2022/04/01 02:14:07;;;;;;;;;4.00;0.00;;;;;4.80;100.00;100114.78;4994519;28;46064;-74
2022/04/01 02:16:33;;;;;;;;;0.00;0.00;;;;;4.85;100.00;100133.88;4993923;28;45472;-73
2022/04/01 02:18:59;;;;;;;;;2.75;0.00;;;;;4.78;100.00;100118.94;4993504;28;45884;-75
2022/04/01 02:21:25;;;;;;;;;2.75;1.00;;;;;4.81;100.00;100113.97;4993201;28;45584;-74
2022/04/01 02:23:51;;;;;;;;;0.00;0.00;;;;;4.74;100.00;100114.44;4992988;28;46024;-75
2022/04/01 02:26:17;;;;;;;;;0.50;0.50;;;;;4.70;100.00;100109.94;4974922;28;45357;-77
2022/04/01 02:28:43;;;;;;;;;0.00;0.00;;;;;4.74;100.00;100110.19;4993125;28;45307;-76
2022/04/01 02:31:11;;;;;;;;;1.25;0.50;;;;;4.73;100.00;100107.53;4993185;28;45591;-76
2022/04/01 02:33:37;;;;;;;;;0.50;0.50;;;;;4.71;100.00;100107.47;4992794;28;46489;-77
2022/04/01 02:36:09;;;;;;;;;0.25;0.25;;;;;4.67;100.00;100107.19;5000096;27;45284;-76
2022/04/01 02:38:34;;;;;;;;;1.00;1.00;;;;;4.61;100.00;100105.16;4992884;28;45342;-73
2022/04/01 02:41:00;;;;;;;;;2.00;2.00;;;;;4.59;100.00;100124.69;5016589;27;45213;-73
2022/04/01 02:43:26;;;;;;;;;2.25;0.50;;;;;4.47;100.00;100133.44;5095770;27;45212;-73
2022/04/01 02:45:52;;;;;;;;;0.00;0.00;;;;;4.41;100.00;100115.16;5096165;27;45896;-73
2022/04/01 02:48:20;;;;;;;;;3.50;1.50;;;;;4.36;100.00;100114.00;5096426;27;45365;-73
2022/04/01 02:50:47;;;;;;;;;1.00;1.00;;;;;4.32;100.00;100105.25;5096966;27;45486;-73
2022/04/01 02:53:14;;;;;;;;;0.00;0.00;;;;;4.40;100.00;100107.34;5077538;27;48006;-73
2022/04/01 02:55:40;;;;;;;;;0.25;0.00;;;;;4.38;100.00;100120.09;5096106;27;45247;-73
2022/04/01 02:58:06;;;;;;;;;0.00;0.00;;;;;4.24;100.00;100110.72;5097275;27;45172;-73
2022/04/01 03:00:39;;;;;;;;;0.00;0.00;;;;;4.27;100.00;100129.69;5081967;27;45503;-72
2022/04/01 03:03:07;;;;;;;;;1.50;1.00;;;;;4.11;100.00;100086.91;5099179;27;45390;-72
2022/04/01 03:05:38;;;;;;;;;0.00;0.00;;;;;4.16;100.00;100108.59;5099822;27;45311;-73
2022/04/01 03:08:05;;;;;;;;;0.00;0.00;;;;;4.10;100.00;100109.91;5099731;27;45401;-73
2022/04/01 03:10:35;;;;;;;;;0.00;0.00;;;;;4.02;100.00;100094.06;5099074;27;45553;-73
2022/04/01 03:13:01;;;;;;;;;0.00;0.00;;;;;4.04;100.00;100100.16;5099741;27;45289;-72
2022/04/01 03:15:29;;;;;;;;;2.00;1.00;;;;;4.06;100.00;100090.91;5096489;27;45441;-73
2022/04/01 03:17:58;;;;;;;;;0.25;0.25;;;;;4.04;100.00;100079.69;4995682;28;45316;-72
2022/04/01 03:20:25;;;;;;;;;0.00;0.00;;;;;3.98;100.00;100092.13;4995343;28;45612;-73
2022/04/01 03:22:51;;;;;;;;;2.00;0.25;;;;;4.02;100.00;100086.38;4995384;28;46418;-73
2022/04/01 03:25:18;;;;;;;;;0.00;0.00;;;;;3.98;100.00;100100.69;5022719;27;45387;-73
2022/04/01 03:27:45;;;;;;;;;1.00;1.00;;;;;3.90;100.00;100093.34;5099072;27;45421;-73
2022/04/01 03:30:11;;;;;;;;;1.00;1.00;;;;;3.89;100.00;100077.09;5100211;27;45695;-72
2022/04/01 03:32:38;;;;;;;;;0.00;0.00;;;;;3.93;100.00;100093.53;5098821;27;45211;-72
2022/04/01 03:35:18;;;;;;;;;1.50;0.00;;;;;3.94;100.00;100075.69;5097694;27;45429;-74
2022/04/01 03:37:45;;;;;;;;;0.00;0.00;;;;;3.89;100.00;100066.84;5099096;27;45193;-71
2022/04/01 03:40:15;;;;;;;;;1.00;1.00;;;;;3.93;100.00;100070.47;5099084;27;45234;-72
2022/04/01 03:42:44;;;;;;;;;0.00;0.00;;;;;3.95;100.00;100085.13;5024098;27;45469;-71
2022/04/01 03:45:11;;;;;;;;;2.00;0.00;;;;;3.89;100.00;100079.66;4994863;27;45361;-71
2022/04/01 03:47:52;;;;;;;;;0.00;0.00;;;;;3.91;100.00;100080.66;4995371;28;45193;-71
2022/04/01 03:50:29;;;;;;;;;1.75;1.00;;;;;3.87;100.00;100066.78;4995341;28;45448;-73
2022/04/01 03:53:00;;;;;;;;;1.00;0.00;;;;;3.92;100.00;100061.94;4995202;28;45290;-71
2022/04/01 03:55:30;;;;;;;;;1.00;0.00;;;;;3.91;100.00;100062.72;4977986;28;45823;-72
2022/04/01 03:58:02;;;;;;;;;0.00;0.00;;;;;3.97;100.00;100078.44;4995062;28;45246;-73
2022/04/01 04:00:29;;;;;;;;;0.50;0.00;;;;;3.96;100.00;100074.09;4994942;28;45307;-71
2022/04/01 04:02:55;;;;;;;;;1.00;1.00;;;;;3.97;100.00;100070.75;4994985;28;46281;-74
2022/04/01 04:05:23;;;;;;;;;2.00;1.00;;;;;3.98;100.00;100059.72;4994660;28;45260;-72
2022/04/01 04:07:49;;;;;;;;;0.25;0.00;;;;;3.92;100.00;100051.69;4995043;28;45473;-72
2022/04/01 04:10:15;;;;;;;;;0.00;0.00;;;;;4.06;100.00;100059.25;4994365;27;45493;-72
2022/04/01 04:12:43;;;;;;;;;1.00;0.00;;;;;4.10;100.00;100061.22;4995066;28;45374;-74
2022/04/01 04:15:09;;;;;;;;;0.75;0.75;;;;;4.16;100.00;100057.34;4994499;28;45185;-73
2022/04/01 04:17:37;;;;;;;;;1.00;1.00;;;;;4.17;100.00;100073.59;4995643;28;45193;-73
2022/04/01 04:20:14;;;;;;;;;0.00;0.00;;;;;4.19;100.00;100066.88;5005792;28;45613;-72
2022/04/01 04:22:50;;;;;;;;;1.00;1.00;;;;;4.11;100.00;100073.25;5091358;27;46647;-73
2022/04/01 04:25:22;;;;;;;;;1.00;1.00;;;;;4.08;100.00;100062.81;5002301;28;45824;-71
2022/04/01 04:27:59;;;;;;;;;0.25;0.25;;;;;4.05;100.00;100060.97;4996567;28;45347;-72
2022/04/01 04:30:35;;;;;;;;;1.00;0.25;;;;;4.20;100.00;100060.97;4996681;28;45492;-72
2022/04/01 04:33:06;;;;;;;;;1.00;1.00;;;;;4.18;100.00;100065.13;5062460;27;46699;-72
2022/04/01 04:35:38;;;;;;;;;1.50;1.00;;;;;4.18;100.00;100066.00;5098204;27;45780;-71
2022/04/01 04:38:05;;;;;;;;;0.00;0.00;;;;;4.17;100.00;100074.50;5043982;27;45278;-72
2022/04/01 04:40:32;;;;;;;;;1.75;1.00;;;;;4.16;100.00;100080.41;5015132;27;45169;-71
2022/04/01 04:42:58;;;;;;;;;2.00;0.75;;;;;4.22;100.00;100066.16;5014185;27;45959;-71
2022/04/01 04:45:26;;;;;;;;;1.00;1.00;;;;;4.23;100.00;100073.97;5013961;28;45743;-71
2022/04/01 04:47:52;;;;;;;;;0.25;0.25;;;;;4.29;100.00;100078.56;5014321;27;45353;-71
2022/04/01 04:50:19;;;;;;;;;0.00;0.00;;;;;4.20;100.00;100060.97;4997310;28;45229;-71
2022/04/01 04:52:49;;;;;;;;;1.00;1.00;;;;;4.28;100.00;100080.22;5013960;27;45283;-71
2022/04/01 04:55:17;;;;;;;;;1.00;1.00;;;;;4.34;100.00;100085.72;5095681;27;46057;-72
2022/04/01 04:57:44;;;;;;;;;1.00;1.00;;;;;4.42;100.00;100087.84;5079532;27;45408;-71
2022/04/01 05:00:11;;;;;;;;;1.25;1.25;;;;;4.40;100.00;100082.63;5087634;27;45535;-71
2022/04/01 05:03:15;;;;;;;;;3.00;1.50;;;;;4.46;100.00;100079.53;5039248;27;45485;-72
2022/04/01 05:05:46;;;;;;;;;1.00;1.00;;;;;4.48;100.00;100101.91;5097546;27;45250;-71
2022/04/01 05:08:38;;;;;;;;;1.00;1.00;;;;;4.59;100.00;100099.06;5097275;27;45390;-72
2022/04/01 05:11:12;;;;;;;;;1.00;1.00;;;;;4.58;100.00;100098.19;5025936;27;45545;-73
2022/04/01 05:14:01;;;;;;;;;1.50;1.50;;;;;4.62;100.00;100105.25;4992207;28;45388;-72
2022/04/01 05:16:59;;;;;;;;;1.00;1.00;;;;;4.69;100.00;100105.59;4993268;28;46027;-72
2022/04/01 05:19:27;;;;;;;;;2.00;2.00;;;;;4.69;100.00;100100.47;4992287;28;45510;-72
2022/04/01 05:22:01;;;;;;;;;1.00;1.00;;;;;4.72;100.00;100110.88;4990845;28;45575;-72
2022/04/01 05:24:38;;;;;;;;;1.00;1.00;;;;;4.71;100.00;100115.16;4992491;28;46133;-72
2022/04/01 05:27:07;;;;;;;;;2.50;1.50;;;;;4.69;100.00;100119.28;4991907;28;45904;-72
2022/04/01 05:29:42;;;;;;;;;2.00;2.00;;;;;4.59;100.00;100117.88;4994231;27;45498;-72
2022/04/01 05:32:10;;;;;;;;;2.00;1.25;;;;;4.61;100.00;100112.84;4991843;28;45335;-72
2022/04/01 05:34:45;;;;;;;;;2.25;1.00;;;;;4.61;100.00;100117.97;4992975;28;46077;-72
2022/04/01 05:37:13;;;;;;;;;2.00;2.00;;;;;4.60;100.00;100111.97;4992832;28;45386;-72
2022/04/01 05:39:46;;;;;;;;;3.00;2.00;;;;;4.54;100.00;100111.63;4995362;28;45295;-72
2022/04/01 05:42:13;;;;;;;;;2.00;2.00;;;;;4.57;100.00;100114.38;5008611;28;45535;-72
2022/04/01 05:44:42;;;;;;;;;2.00;1.25;;;;;4.58;100.00;100117.78;5009061;27;46246;-72
2022/04/01 05:47:10;;;;;;;;;2.00;2.00;;;;;4.57;100.00;100124.63;4992992;28;45836;-72
2022/04/01 05:49:46;;;;;;;;;2.00;2.00;;;;;4.58;100.00;100108.44;4973331;28;45442;-72
2022/04/01 05:52:13;;;;;;;;;2.25;2.25;;;;;4.58;100.00;100122.94;4993469;27;45498;-72
2022/04/01 05:54:41;;;;;;;;;2.00;2.00;;;;;4.54;100.00;100119.31;4993324;27;45860;-75
2022/04/01 05:57:10;;;;;;;;;2.00;2.00;;;;;4.54;100.00;100138.91;5015970;28;45418;-76
2022/04/01 05:59:38;;;;;;;;;2.00;1.00;;;;;4.48;100.00;100135.22;4983232;28;45268;-75
2022/04/01 06:02:34;;;;;;;;;5.75;5.00;;;;;4.45;100.00;100160.66;5071060;27;46148;-74
2022/04/01 06:05:12;;;;;;;;;3.50;2.25;;;;;4.38;100.00;100150.84;5074332;27;45526;-80
2022/04/01 06:07:51;;;;;;;;;2.50;2.50;;;;;4.21;100.00;100133.59;4978483;28;45685;-81
2022/04/01 06:10:38;;;;;;;;;3.00;3.00;;;;;4.25;100.00;100151.81;4999731;27;45504;-84
2022/04/01 06:13:15;;;;;;;;;2.50;2.50;;;;;4.19;100.00;100146.31;4991559;28;45545;-78
2022/04/01 06:15:54;;;;;;;;;2.50;2.50;;;;;4.18;100.00;100157.34;4998280;28;45410;-81
2022/04/01 06:18:44;;;;;;;;;3.00;3.00;;;;;4.16;100.00;100179.41;4993235;27;45173;-77
2022/04/01 06:21:15;;;;;;;;;5.25;3.00;;;;;4.14;100.00;100174.22;5016489;27;45389;-81
2022/04/01 06:23:59;;;;;;;;;2.50;1.25;;;;;4.22;100.00;100179.81;5013315;28;45160;-76
2022/04/01 06:26:28;;;;;;;;;2.75;2.75;;;;;4.18;100.00;100172.72;5011680;27;45995;-76
2022/04/01 06:29:20;;;;;;;;;2.50;2.50;;;;;4.21;100.00;100178.03;5009246;27;45468;-77
2022/04/01 06:31:51;;;;;;;;;4.50;3.00;;;;;4.19;100.00;100174.50;4997858;27;45372;-81
2022/04/01 06:34:23;;;;;;;;;3.00;3.00;;;;;4.21;100.00;100189.97;4996828;27;45410;-81
2022/04/01 06:36:59;;;;;;;;;4.00;4.00;;;;;4.18;100.00;100204.38;5019550;28;46743;-75
2022/04/01 06:39:45;;;;;;;;;2.50;2.50;;;;;4.14;100.00;100193.84;4996636;27;45770;-75
2022/04/01 06:42:20;;;;;;;;;5.00;2.75;;;;;4.01;100.00;100172.59;4995354;28;45381;-75
2022/04/01 06:44:47;;;;;;;;;5.00;5.00;;;;;4.12;100.00;100186.03;4996184;28;45520;-76
2022/04/01 06:47:13;;;;;;;;;5.00;5.00;;;;;4.20;100.00;100194.19;4997319;27;45492;-75
2022/04/01 06:49:39;;;;;;;;;4.50;3.00;;;;;4.21;100.00;100189.97;4995823;27;45888;-74
2022/04/01 06:52:05;;;;;;;;;5.00;5.00;;;;;4.29;100.00;100205.00;4995519;28;45285;-74
2022/04/01 06:54:31;;;;;;;;;5.00;5.00;;;;;4.25;100.00;100205.63;4996299;28;45477;-74
2022/04/01 06:56:56;;;;;;;;;5.25;2.75;;;;;4.28;100.00;100216.03;4995418;28;45375;-74
2022/04/01 06:59:22;;;;;;;;;7.00;5.00;;;;;4.21;100.00;100211.34;4995560;28;45212;-74
2022/04/01 07:01:47;;;;;;;;;6.00;3.00;;;;;4.19;100.00;100212.91;4994951;27;45452;-74
2022/04/01 07:04:14;;;;;;;;;6.00;5.25;;;;;4.17;100.00;100219.63;4997034;28;45460;-75
2022/04/01 07:06:41;;;;;;;;;6.25;5.25;;;;;4.19;100.00;100225.72;4995622;28;46447;-75
2022/04/01 07:09:07;;;;;;;;;9.00;5.00;;;;;4.07;100.00;100207.03;5009459;27;45478;-78
2022/04/01 07:11:34;;;;;;;;;7.00;7.00;;;;;3.93;100.00;100191.75;4996474;27;45356;-73
2022/04/01 07:14:00;;;;;;;;;5.75;5.75;;;;;4.18;100.00;100227.41;5035843;27;45568;-75
2022/04/01 07:16:26;;;;;;;;;6.50;5.00;;;;;4.25;100.00;100226.13;5001703;27;45970;-77
2022/04/01 07:18:52;;;;;;;;;7.25;7.25;;;;;4.17;100.00;100206.81;5015074;28;45173;-73
2022/04/01 07:21:18;;;;;;;;;6.25;6.25;;;;;4.32;100.00;100242.72;5015024;28;45279;-75
2022/04/01 07:23:45;;;;;;;;;6.50;6.25;;;;;4.32;100.00;100250.41;5016173;28;45508;-74
2022/04/01 07:26:10;;;;;;;;;5.25;5.00;;;;;4.29;100.00;100242.56;5003823;28;46329;-74
2022/04/01 07:28:36;;;;;;;;;8.00;8.00;;;;;4.34;100.00;100249.75;5005543;27;45469;-74
2022/04/01 07:32:29;;;;;;;;;6.25;6.25;;;;;4.36;100.00;100248.94;4998276;28;45445;-76
2022/04/01 07:33:49;;;;;;;;;8.00;5.25;;;;;4.30;100.00;100245.22;4996170;28;45538;-76
2022/04/01 07:36:15;;;;;;;;;7.75;6.75;;;;;4.27;100.00;100239.03;4999657;27;45799;-75
2022/04/01 07:38:41;;;;;;;;;8.50;7.00;;;;;4.29;100.00;100243.44;5001630;27;45296;-74
2022/04/01 07:41:07;;;;;;;;;10.00;7.25;;;;;4.32;100.00;100240.16;5000009;28;45294;-74
2022/04/01 07:43:32;;;;;;;;;7.00;7.00;;;;;4.40;100.00;100254.34;4995305;27;45218;-75
2022/04/01 07:45:58;;;;;;;;;10.00;5.75;;;;;4.45;100.00;100258.06;4994059;27;46145;-75
2022/04/01 07:48:24;;;;;;;;;8.25;6.25;;;;;4.43;100.00;100254.50;4994617;28;45878;-76
2022/04/01 07:50:49;;;;;;;;;7.00;7.00;;;;;4.48;100.00;100254.81;4995703;28;45283;-75
2022/04/01 07:53:16;;;;;;;;;5.25;5.25;;;;;4.48;100.00;100262.50;4997259;27;45578;-75
2022/04/01 07:55:48;;;;;;;;;7.50;7.00;;;;;4.51;100.00;100279.75;4996015;27;46144;-73
2022/04/01 07:58:15;;;;;;;;;9.75;8.75;;;;;4.56;100.00;100266.41;4979119;28;45441;-73
2022/04/01 08:00:41;;;;;;;;;11.00;8.25;;;;;4.60;100.00;100283.72;4994789;28;45339;-74
2022/04/01 08:03:07;;;;;;;;;8.50;8.50;;;;;4.61;100.00;100266.69;4979178;28;45551;-74
2022/04/01 08:05:33;;;;;;;;;7.75;7.75;;;;;4.66;100.00;100249.88;4996371;28;45410;-75
2022/04/01 08:07:59;;;;;;;;;8.50;8.50;;;;;4.75;100.00;100290.59;4995611;27;45198;-75
2022/04/01 08:10:24;;;;;;;;;8.50;8.50;;;;;4.76;100.00;100293.22;4994482;27;45346;-75
2022/04/01 08:12:50;;;;;;;;;6.00;6.00;;;;;4.69;100.00;100285.97;4995010;28;45248;-75
2022/04/01 08:15:16;;;;;;;;;7.00;7.00;;;;;4.75;100.00;100296.59;4994376;28;45337;-75
2022/04/01 08:17:42;;;;;;;;;8.00;6.75;;;;;4.73;100.00;100287.94;4994703;28;45357;-75
2022/04/01 08:20:10;;;;;;;;;7.75;7.75;;;;;4.82;100.00;100294.41;4994425;28;45395;-75
2022/04/01 08:22:35;;;;;;;;;11.50;9.00;;;;;4.82;100.00;100302.97;4994471;27;45419;-75
2022/04/01 08:25:01;;;;;;;;;7.00;7.00;;;;;4.87;100.00;100313.50;4985382;28;46876;-75
2022/04/01 08:27:27;;;;;;;;;7.75;7.75;;;;;4.90;100.00;100306.00;5013936;28;45496;-75
2022/04/01 08:29:57;;;;;;;;;7.00;6.50;;;;;4.93;100.00;100319.88;5014452;27;45318;-75
2022/04/01 08:32:23;;;;;;;;;7.00;7.00;;;;;4.96;100.00;100314.06;5012563;28;45269;-75
2022/04/01 08:34:48;;;;;;;;;10.00;7.00;;;;;4.96;100.00;100316.63;5012325;28;46021;-75
2022/04/01 08:37:14;;;;;;;;;7.75;7.00;;;;;5.03;100.00;100318.75;4994254;28;45958;-75
2022/04/01 08:39:43;;;;;;;;;7.50;7.00;;;;;5.04;100.00;100317.06;4994715;28;45401;-75
2022/04/01 08:42:09;;;;;;;;;9.00;7.75;;;;;5.17;100.00;100346.91;4994424;28;45402;-75
2022/04/01 08:44:41;;;;;;;;;11.75;10.75;;;;;5.19;100.00;100335.94;5005830;27;45273;-76
2022/04/01 08:47:08;;;;;;;;;10.00;8.00;;;;;5.16;100.00;100340.88;4999756;27;46365;-74
2022/04/01 08:49:34;;;;;;;;;7.00;7.00;;;;;5.06;100.00;100349.72;4976901;28;45256;-75
2022/04/01 08:52:00;;;;;;;;;9.00;8.25;;;;;4.99;100.00;100347.56;4977360;28;45598;-74
2022/04/01 08:54:26;;;;;;;;;8.25;7.75;;;;;5.02;100.00;100352.91;4993984;28;45554;-76
2022/04/01 08:56:51;;;;;;;;;6.75;6.75;;;;;4.98;100.00;100348.38;4993748;27;45202;-75
2022/04/01 08:59:17;;;;;;;;;9.75;7.75;;;;;5.01;100.00;100358.81;4994097;28;45292;-75
2022/04/01 09:01:44;;;;;;;;;8.00;6.75;;;;;4.99;100.00;100356.97;4994188;28;45509;-75
2022/04/01 09:04:23;;;;;;;;;9.75;8.75;;;;;4.98;100.00;100368.03;4993352;28;46409;-75
2022/04/01 09:06:51;;;;;;;;;11.25;10.00;;;;;4.94;100.00;100366.97;4993907;28;45934;-75
2022/04/01 09:09:27;;;;;;;;;7.00;7.00;;;;;4.87;100.00;100377.63;4992643;27;45359;-75
2022/04/01 09:12:24;;;;;;;;;9.25;7.75;;;;;4.75;100.00;100376.06;4994234;28;45632;-74
2022/04/01 09:14:54;;;;;;;;;10.25;8.25;;;;;4.71;100.00;100374.16;4992496;28;45466;-74
2022/04/01 09:17:20;;;;;;;;;11.25;6.75;;;;;4.82;100.00;100386.72;4993665;28;45331;-75
2022/04/01 09:19:46;;;;;;;;;11.25;11.00;;;;;4.88;100.00;100379.41;4994008;28;45303;-75
2022/04/01 09:22:25;;;;;;;;;11.00;8.00;;;;;4.95;100.00;100376.44;4994530;28;45251;-75
2022/04/01 09:25:02;;;;;;;;;7.00;7.00;;;;;4.88;100.00;100389.66;4995887;28;46169;-75
2022/04/01 09:27:51;;;;;;;;;10.50;10.25;;;;;4.92;100.00;100397.63;4993775;28;45389;-75
2022/04/01 09:30:22;;;;;;;;;12.00;10.00;;;;;4.85;100.00;100399.75;4993006;28;45230;-75
2022/04/01 09:32:55;;;;;;;;;10.75;7.00;;;;;4.93;100.00;100404.53;4993996;28;45389;-76
2022/04/01 09:35:24;;;;;;;;;8.25;7.00;;;;;4.92;100.00;100400.19;4982874;28;47551;-75
2022/04/01 09:37:55;;;;;;;;;11.75;9.00;;;;;4.93;100.00;100406.22;4980212;28;45982;-76
2022/04/01 09:40:22;;;;;;;;;7.50;6.75;;;;;4.97;100.00;100415.88;5013154;27;45462;-75
2022/04/01 09:42:57;;;;;;;;;8.25;8.25;;;;;4.85;100.00;100408.31;4995869;28;45340;-76
2022/04/01 09:45:32;;;;;;;;;9.00;7.50;;;;;4.96;100.00;100421.81;4993219;28;45682;-75
2022/04/01 09:47:57;;;;;;;;;10.50;10.00;;;;;5.05;100.00;100422.38;4973466;28;45947;-74
2022/04/01 09:50:33;;;;;;;;;10.50;8.00;;;;;5.08;100.00;100414.84;4986334;28;45362;-75
2022/04/01 09:53:19;;;;;;;;;15.25;12.00;;;;;5.08;100.00;100413.97;4974507;28;45543;-75
2022/04/01 09:55:47;;;;;;;;;12.00;11.00;;;;;5.17;100.00;100429.03;5006806;28;46320;-76
2022/04/01 09:58:15;;;;;;;;;13.25;10.50;;;;;5.24;100.00;100433.75;4995694;28;45350;-75
2022/04/01 10:00:41;;;;;;;;;11.00;10.00;;;;;5.19;100.00;100430.00;5011104;28;45368;-75
2022/04/01 10:03:09;;;;;;;;;14.00;11.75;;;;;5.21;100.00;100425.84;5001237;28;45385;-76
2022/04/01 10:05:42;;;;;;;;;12.25;12.25;;;;;5.27;100.00;100444.19;5016330;27;45367;-75
2022/04/01 10:08:10;;;;;;;;;14.50;12.50;;;;;5.34;100.00;100454.03;5012104;28;45959;-75
2022/04/01 10:10:37;;;;;;;;;11.00;11.00;;;;;5.42;100.00;100451.91;5013307;27;45219;-75
2022/04/01 10:13:14;;;;;;;;;13.25;9.75;;;;;5.31;100.00;100438.44;4995722;28;45510;-75
2022/04/01 10:15:44;;;;;;;;;13.25;13.25;;;;;5.35;100.00;100460.03;4993675;28;47591;-75
2022/04/01 10:18:12;;;;;;;;;15.00;11.50;;;;;5.27;100.00;100445.06;5006668;28;45791;-75
2022/04/01 10:20:39;;;;;;;;;10.25;10.00;;;;;5.22;100.00;100448.16;4993152;28;45260;-75
2022/04/01 10:23:11;;;;;;;;;15.50;10.50;;;;;5.27;100.00;100459.59;4993967;28;45487;-75
2022/04/01 10:25:45;;;;;;;;;12.50;9.00;;;;;5.30;100.00;100457.19;4992715;28;45479;-76
2022/04/01 10:28:12;;;;;;;;;11.25;9.50;;;;;5.20;100.00;100449.72;4992282;28;45870;-74
2022/04/01 10:30:40;;;;;;;;;15.00;12.00;;;;;5.26;100.00;100465.53;4975181;28;45324;-75
2022/04/01 10:33:07;;;;;;;;;11.00;9.00;;;;;5.23;100.00;100478.16;4999878;28;45306;-74
2022/04/01 10:35:35;;;;;;;;;13.00;10.25;;;;;5.11;100.00;100466.34;5012626;27;45436;-75
2022/04/01 10:38:07;;;;;;;;;10.75;9.25;;;;;5.11;100.00;100480.88;5012498;28;45900;-75
2022/04/01 10:40:38;;;;;;;;;13.00;12.00;;;;;5.14;100.00;100477.59;4997489;28;45519;-75
2022/04/01 10:43:16;;;;;;;;;12.75;11.50;;;;;5.17;100.00;100482.94;4978976;28;45486;-75
2022/04/01 10:45:58;;;;;;;;;15.50;13.50;;;;;5.16;100.00;100487.16;4973623;28;45553;-75
2022/04/01 10:51:37;;;;;;;;;13.25;11.00;;;;;5.12;100.00;100492.91;5012097;28;45330;-74
2022/04/01 10:54:22;;;;;;;;;12.25;12.00;;;;;5.09;100.00;100488.47;4995757;27;45245;-74
2022/04/01 10:57:06;;;;;;;;;12.00;12.00;;;;;5.17;100.00;100491.50;4992298;28;45280;-76
2022/04/01 10:59:46;;;;;;;;;13.50;11.50;;;;;5.19;100.00;100494.16;4992496;28;45432;-73
2022/04/01 11:02:18;;;;;;;;;13.75;12.00;;;;;5.18;100.00;100495.84;4998612;27;45357;-73
2022/04/01 11:04:45;;;;;;;;;13.75;12.75;;;;;5.25;100.00;100500.53;4983738;28;45514;-73
2022/04/01 11:07:28;;;;;;;;;13.25;11.00;;;;;5.24;100.00;100506.47;4993978;27;45545;-73
2022/04/01 11:10:00;;;;;;;;;11.50;9.50;;;;;5.27;100.00;100508.38;4992641;28;45764;-74
2022/04/01 11:12:32;;;;;;;;;12.75;11.00;;;;;5.26;100.00;100510.03;4991811;28;45307;-74
2022/04/01 11:15:08;;;;;;;;;16.00;12.50;;;;;5.30;100.00;100517.94;4992765;28;45319;-74
2022/04/01 11:17:34;;;;;;;;;12.25;11.75;;;;;5.25;100.00;100515.06;4974191;28;47193;-74
2022/04/01 11:20:07;;;;;;;;;19.25;14.00;;;;;5.19;100.00;100513.03;4994785;28;45297;-74
2022/04/01 11:22:42;;;;;;;;;14.00;12.75;;;;;5.21;100.00;100523.38;4996279;28;45317;-73
2022/04/01 11:25:13;;;;;;;;;16.00;15.50;;;;;5.24;100.00;100521.00;4995600;28;45341;-73
2022/04/01 11:27:56;;;;;;;;;12.75;12.00;;;;;5.31;100.00;100523.13;4994977;28;46319;-73
2022/04/01 11:30:27;;;;;;;;;17.00;13.75;;;;;5.30;100.00;100517.94;4994648;28;45252;-72
2022/04/01 11:33:15;;;;;;;;;13.50;13.00;;;;;5.25;100.00;100523.66;4995308;28;45404;-74
2022/04/01 11:35:44;;;;;;;;;14.25;12.00;;;;;5.25;100.00;100521.09;4995367;28;45370;-74
2022/04/01 11:38:18;;;;;;;;;12.75;12.50;;;;;5.31;100.00;100533.41;4976823;28;47714;-74
2022/04/01 11:40:45;;;;;;;;;13.50;11.50;;;;;5.29;100.00;100522.19;4995104;28;46083;-73
2022/04/01 11:43:17;;;;;;;;;14.00;12.00;;;;;5.35;100.00;100537.03;4995207;28;45308;-74
2022/04/01 11:45:42;;;;;;;;;12.50;11.75;;;;;5.34;100.00;100536.16;4995335;28;45548;-73